Time;durP1;ratioP1;P1;durP2;ratioP2;P2;SDS_P1;SDS_P2;PMS_P1;PMS_P2;Temp;Humidity;BMP_temperature;BMP_pressure;BME280_temperature;BME280_humidity;BME280_pressure;Samples;Min_cycle;Max_cycle;Signal;HPM_P1;HPM_P2
2023/06/28 00:00:36;;;;;;;1.50;0.90;;;18.90;95.90;;;;;;5007372;28;20456;-89
2023/06/28 00:03:11;;;;;;;1.47;0.90;;;18.80;95.50;;;;;;5005167;28;20512;-87
2023/06/28 00:05:37;;;;;;;1.47;0.90;;;18.80;96.40;;;;;;5005217;28;21027;-86
2023/06/28 00:08:05;;;;;;;1.50;1.00;;;18.80;96.40;;;;;;5001307;28;20793;-88
2023/06/28 00:10:31;;;;;;;1.47;0.90;;;18.70;95.90;;;;;;5005890;28;20489;-88
2023/06/28 00:12:59;;;;;;;1.47;0.93;;;18.70;96.80;;;;;;4999899;28;20604;-88
2023/06/28 00:15:26;;;;;;;1.47;0.90;;;18.70;96.30;;;;;;4999757;28;20461;-87
2023/06/28 00:17:53;;;;;;;1.43;0.97;;;18.60;96.20;;;;;;5002074;28;20457;-87
2023/06/28 00:20:20;;;;;;;1.43;0.90;;;18.60;96.60;;;;;;5003040;28;20461;-85
2023/06/28 00:22:47;;;;;;;1.47;0.90;;;18.60;97.00;;;;;;5001250;28;21036;-89
2023/06/28 00:25:13;;;;;;;1.50;0.90;;;18.60;97.20;;;;;;5004251;28;20564;-87
2023/06/28 00:27:40;;;;;;;1.47;0.90;;;18.50;97.20;;;;;;5004187;28;20483;-87
2023/06/28 00:30:10;;;;;;;1.43;0.90;;;18.60;97.20;;;;;;5003966;28;20461;-86
2023/06/28 00:32:37;;;;;;;1.47;0.90;;;18.60;97.60;;;;;;5003004;28;20501;-87
2023/06/28 00:35:05;;;;;;;1.47;1.00;;;18.60;97.60;;;;;;4993563;28;20469;-86
2023/06/28 00:37:32;;;;;;;1.50;0.90;;;18.50;97.20;;;;;;5002949;28;20517;-86
2023/06/28 00:39:59;;;;;;;1.47;0.90;;;18.50;97.40;;;;;;5008756;28;20472;-89
2023/06/28 00:42:26;;;;;;;1.47;0.90;;;18.50;97.20;;;;;;5006514;28;20479;-86
2023/06/28 00:44:53;;;;;;;1.50;1.00;;;18.50;97.90;;;;;;5007359;28;20453;-89
2023/06/28 00:47:22;;;;;;;1.50;0.90;;;18.50;97.90;;;;;;5007574;28;20461;-87
2023/06/28 00:49:50;;;;;;;1.50;0.90;;;18.50;98.10;;;;;;5007742;28;20454;-86
2023/06/28 00:52:17;;;;;;;1.50;1.00;;;18.40;97.80;;;;;;5005452;28;20504;-85
2023/06/28 00:54:45;;;;;;;1.47;0.90;;;18.40;98.00;;;;;;5007632;28;20465;-87
2023/06/28 00:57:12;;;;;;;1.47;0.90;;;18.40;97.90;;;;;;5008287;28;20457;-88
2023/06/28 00:59:39;;;;;;;1.47;0.90;;;18.40;98.20;;;;;;5008791;28;20453;-87
2023/06/28 01:02:06;;;;;;;1.43;0.90;;;18.30;98.20;;;;;;5005224;28;20492;-89
2023/06/28 01:04:37;;;;;;;1.43;0.90;;;18.30;98.20;;;;;;5004219;28;20500;-85
2023/06/28 01:07:06;;;;;;;1.43;0.90;;;18.30;98.20;;;;;;5006527;28;20463;-87
2023/06/28 01:09:33;;;;;;;1.50;1.00;;;18.30;98.20;;;;;;5007553;28;20504;-86
2023/06/28 01:12:00;;;;;;;1.50;0.90;;;18.30;98.20;;;;;;5004625;28;20489;-87
2023/06/28 01:14:28;;;;;;;1.47;0.90;;;18.20;98.20;;;;;;5006611;28;20475;-86
2023/06/28 01:16:55;;;;;;;1.50;1.00;;;18.20;98.20;;;;;;5007909;28;20505;-88
2023/06/28 01:19:23;;;;;;;1.50;0.93;;;18.20;98.20;;;;;;5008879;28;20460;-87
2023/06/28 01:21:56;;;;;;;1.40;0.90;;;18.10;98.20;;;;;;5006359;28;20476;-87
2023/06/28 01:24:25;;;;;;;1.47;1.00;;;18.10;98.20;;;;;;5008265;28;20465;-86
2023/06/28 01:26:54;;;;;;;1.50;0.90;;;18.10;98.20;;;;;;5006547;28;20461;-88
2023/06/28 01:29:21;;;;;;;1.50;1.00;;;18.10;98.20;;;;;;5008118;28;20946;-86
2023/06/28 01:31:51;;;;;;;1.50;1.00;;;18.10;98.20;;;;;;5004253;28;20485;-87
2023/06/28 01:34:18;;;;;;;1.40;0.90;;;18.10;98.20;;;;;;4994771;28;20517;-87
2023/06/28 01:36:47;;;;;;;1.47;1.00;;;18.10;98.20;;;;;;5005176;28;20463;-85
2023/06/28 01:39:15;;;;;;;1.50;1.00;;;18.10;98.20;;;;;;5006919;28;20457;-86
2023/06/28 01:41:44;;;;;;;1.50;0.90;;;18.00;98.20;;;;;;5003819;28;20492;-88
2023/06/28 01:44:11;;;;;;;1.50;0.90;;;18.00;98.20;;;;;;5007438;28;20974;-87
2023/06/28 01:46:38;;;;;;;1.50;1.00;;;18.00;98.20;;;;;;5008445;28;20471;-87
2023/06/28 01:49:06;;;;;;;1.50;1.00;;;18.00;98.20;;;;;;5003493;28;20520;-88
2023/06/28 01:51:33;;;;;;;1.50;1.00;;;17.90;98.20;;;;;;5003329;28;20490;-87
2023/06/28 01:54:01;;;;;;;1.50;1.03;;;17.90;98.20;;;;;;5005909;28;20524;-87
2023/06/28 01:56:28;;;;;;;1.43;0.90;;;17.90;98.20;;;;;;5006069;28;20461;-86
2023/06/28 01:58:56;;;;;;;1.47;0.90;;;17.80;98.20;;;;;;5005477;28;20951;-87
2023/06/28 02:01:23;;;;;;;1.50;0.90;;;17.80;98.20;;;;;;5003852;28;20548;-86
2023/06/28 02:03:50;;;;;;;1.47;0.90;;;17.80;98.20;;;;;;5004567;28;20446;-87
2023/06/28 02:06:18;;;;;;;1.43;0.90;;;17.80;98.20;;;;;;5006387;28;20459;-87
2023/06/28 02:08:45;;;;;;;1.50;0.90;;;17.80;98.20;;;;;;5005756;28;20465;-84
2023/06/28 02:11:12;;;;;;;1.50;0.90;;;17.70;98.20;;;;;;5003376;28;20520;-89
2023/06/28 02:13:40;;;;;;;1.47;0.90;;;17.70;98.20;;;;;;5004564;28;20464;-87
2023/06/28 02:16:08;;;;;;;1.43;0.90;;;17.70;98.20;;;;;;5004132;28;20508;-88
2023/06/28 02:18:36;;;;;;;1.47;0.90;;;17.70;98.20;;;;;;5005274;28;20453;-87
2023/06/28 02:21:03;;;;;;;1.50;0.90;;;17.60;98.20;;;;;;5003139;28;20461;-90
2023/06/28 02:23:30;;;;;;;1.50;0.90;;;17.60;98.20;;;;;;5001583;28;20519;-86
2023/06/28 02:25:56;;;;;;;1.50;0.90;;;17.60;98.20;;;;;;5002243;28;20461;-88
2023/06/28 02:28:23;;;;;;;1.43;0.90;;;17.60;98.20;;;;;;5000811;28;20481;-86
2023/06/28 02:30:50;;;;;;;1.47;0.93;;;17.60;98.20;;;;;;4998150;28;20469;-88
2023/06/28 02:33:18;;;;;;;1.50;1.00;;;17.60;98.20;;;;;;4993291;28;20497;-89
2023/06/28 02:35:45;;;;;;;1.50;1.00;;;17.60;98.20;;;;;;4994363;28;20477;-86
2023/06/28 02:38:12;;;;;;;1.50;1.00;;;17.60;98.20;;;;;;4994636;28;20479;-87
2023/06/28 02:40:39;;;;;;;1.50;1.00;;;17.70;98.20;;;;;;5000748;28;20523;-91
2023/06/28 02:43:06;;;;;;;1.43;0.90;;;17.70;98.20;;;;;;5002591;28;20469;-88
2023/06/28 02:45:33;;;;;;;1.50;1.00;;;17.70;98.20;;;;;;5002789;28;20452;-87
2023/06/28 02:48:00;;;;;;;1.40;0.90;;;17.70;98.20;;;;;;5005430;28;20457;-86
2023/06/28 02:50:28;;;;;;;1.50;0.90;;;17.70;98.20;;;;;;5004142;28;20454;-88
2023/06/28 02:52:54;;;;;;;1.47;1.00;;;17.70;98.20;;;;;;5005121;28;20485;-86
2023/06/28 02:55:21;;;;;;;1.40;0.90;;;17.70;98.20;;;;;;5002405;28;20445;-88
2023/06/28 02:57:48;;;;;;;1.40;0.90;;;17.70;98.20;;;;;;5005659;28;20475;-87
2023/06/28 03:00:15;;;;;;;1.40;0.90;;;17.70;98.20;;;;;;5005928;28;20529;-89
2023/06/28 03:02:42;;;;;;;1.47;0.90;;;17.70;98.20;;;;;;5001199;28;20557;-88
2023/06/28 03:05:09;;;;;;;1.43;1.00;;;17.70;98.20;;;;;;5004973;28;20458;-88
2023/06/28 03:07:37;;;;;;;1.50;0.90;;;17.70;98.20;;;;;;4996058;28;20465;-86
2023/06/28 03:10:05;;;;;;;1.40;0.90;;;17.70;98.20;;;;;;5000555;28;20468;-87
2023/06/28 03:12:32;;;;;;;1.47;1.00;;;17.70;98.20;;;;;;5007207;28;20498;-84
2023/06/28 03:14:59;;;;;;;1.50;0.90;;;17.60;98.20;;;;;;5001597;28;20569;-85
2023/06/28 03:17:26;;;;;;;1.47;0.90;;;17.60;98.20;;;;;;5009530;28;20468;-84
2023/06/28 03:19:52;;;;;;;1.47;0.90;;;17.70;98.20;;;;;;5008378;28;20457;-87
2023/06/28 03:22:19;;;;;;;1.47;0.90;;;17.70;98.20;;;;;;5007290;28;20560;-85
2023/06/28 03:24:47;;;;;;;1.50;0.90;;;17.70;98.20;;;;;;5006141;28;20469;-87
2023/06/28 03:27:14;;;;;;;1.47;0.90;;;17.70;98.20;;;;;;5004386;28;20523;-85
2023/06/28 03:29:41;;;;;;;1.43;0.90;;;17.80;98.20;;;;;;5005796;28;20465;-85
2023/06/28 03:32:09;;;;;;;1.47;0.90;;;17.80;98.20;;;;;;5002373;28;20477;-87
2023/06/28 03:34:36;;;;;;;1.50;1.00;;;17.80;98.20;;;;;;5004367;28;20460;-88
2023/06/28 03:37:03;;;;;;;1.43;0.90;;;17.80;98.20;;;;;;5002515;28;20472;-82
2023/06/28 03:39:30;;;;;;;1.50;0.90;;;17.80;98.20;;;;;;5002779;28;20809;-86
2023/06/28 03:41:58;;;;;;;1.50;0.90;;;17.80;98.20;;;;;;5002853;28;20523;-84
2023/06/28 03:44:25;;;;;;;1.47;1.00;;;17.80;98.20;;;;;;5005521;28;20475;-87
2023/06/28 03:46:52;;;;;;;1.50;0.90;;;17.80;98.20;;;;;;5005242;28;20513;-86
2023/06/28 03:49:18;;;;;;;1.50;1.00;;;17.90;98.20;;;;;;5005266;28;20487;-86
2023/06/28 03:51:45;;;;;;;1.50;0.90;;;17.90;98.20;;;;;;4999791;28;20493;-86
2023/06/28 03:54:13;;;;;;;1.40;0.93;;;17.90;98.20;;;;;;5002270;28;20453;-86
2023/06/28 03:56:40;;;;;;;1.50;1.00;;;17.90;98.20;;;;;;5002851;28;20465;-87
2023/06/28 03:59:08;;;;;;;1.50;1.00;;;17.90;98.20;;;;;;5006851;28;20461;-84
2023/06/28 04:01:39;;;;;;;1.50;0.90;;;17.90;98.20;;;;;;5003768;28;20491;-84
2023/06/28 04:04:05;;;;;;;1.47;1.00;;;17.90;98.20;;;;;;5003442;28;20488;-84
2023/06/28 04:06:32;;;;;;;1.50;1.00;;;17.90;98.20;;;;;;5005089;28;20883;-85
2023/06/28 04:08:59;;;;;;;1.50;0.90;;;18.00;98.20;;;;;;5005231;28;20529;-87
2023/06/28 04:11:26;;;;;;;1.50;0.90;;;18.00;98.20;;;;;;5001769;28;20493;-85
2023/06/28 04:13:53;;;;;;;1.50;1.00;;;18.00;98.20;;;;;;5004488;28;20473;-83
2023/06/28 04:16:21;;;;;;;1.50;1.00;;;18.00;98.20;;;;;;5005193;28;20561;-86
2023/06/28 04:18:48;;;;;;;1.43;0.90;;;18.00;98.20;;;;;;5003947;28;20560;-86
2023/06/28 04:21:14;;;;;;;1.40;0.90;;;18.10;98.20;;;;;;5002122;28;20461;-84
2023/06/28 04:23:41;;;;;;;1.47;1.00;;;18.10;98.20;;;;;;5003277;28;20520;-88
2023/06/28 04:26:08;;;;;;;1.50;1.00;;;18.10;98.20;;;;;;5004529;28;20468;-85
2023/06/28 04:28:35;;;;;;;1.50;0.90;;;18.10;98.20;;;;;;5005597;28;20525;-86
2023/06/28 04:31:02;;;;;;;1.43;0.90;;;18.10;98.20;;;;;;5000234;28;20544;-86
2023/06/28 04:33:30;;;;;;;1.47;0.90;;;18.10;98.20;;;;;;4997566;28;20950;-84
2023/06/28 04:36:01;;;;;;;1.43;0.90;;;18.10;98.20;;;;;;4999747;28;20465;-86
2023/06/28 04:38:28;;;;;;;1.47;0.90;;;18.10;98.20;;;;;;4995664;28;20461;-87
2023/06/28 04:43:39;;;;;;;1.47;0.90;;;18.20;98.20;;;;;;5206417;23;21284;-82
2023/06/28 04:46:08;;;;;;;1.40;0.90;;;18.30;98.20;;;;;;4974951;28;20551;-87
2023/06/28 04:48:36;;;;;;;1.43;0.90;;;18.30;98.20;;;;;;4986868;28;20500;-83
2023/06/28 04:51:03;;;;;;;1.43;0.90;;;18.40;98.20;;;;;;4992419;28;20473;-84
2023/06/28 04:53:30;;;;;;;1.43;0.90;;;18.40;98.20;;;;;;4985021;28;20489;-83
2023/06/28 04:55:57;;;;;;;1.47;1.00;;;18.40;98.20;;;;;;4987760;28;20464;-84
2023/06/28 04:58:30;;;;;;;1.50;0.97;;;18.40;98.20;;;;;;5005068;23;20511;-82
2023/06/28 05:04:04;;;;;;;1.47;0.90;;;18.50;98.20;;;;;;4984000;28;20470;-84
2023/06/28 05:06:32;;;;;;;1.50;0.90;;;18.50;98.20;;;;;;5013788;23;20456;-83
2023/06/28 05:08:58;;;;;;;1.40;0.90;;;18.50;98.20;;;;;;4996909;28;20672;-80
2023/06/28 05:11:25;;;;;;;1.47;0.90;;;18.50;98.20;;;;;;4994574;28;20492;-81
2023/06/28 05:14:16;;;;;;;1.47;0.90;;;18.60;98.20;;;;;;4999283;28;20491;-81
2023/06/28 05:16:55;;;;;;;1.40;0.90;;;18.60;98.20;;;;;;4997293;28;20477;-81
2023/06/28 05:19:25;;;;;;;1.50;0.90;;;18.60;98.20;;;;;;4996176;28;20588;-82
2023/06/28 05:22:00;;;;;;;1.43;0.90;;;18.70;98.20;;;;;;4999234;28;20537;-82
2023/06/28 05:24:27;;;;;;;1.43;0.90;;;18.70;98.20;;;;;;4996268;28;20477;-81
2023/06/28 05:26:53;;;;;;;1.50;0.90;;;18.70;98.20;;;;;;5001478;28;20658;-82
2023/06/28 05:29:20;;;;;;;1.47;0.90;;;18.80;98.20;;;;;;4996367;28;20461;-82
2023/06/28 05:31:57;;;;;;;1.43;0.90;;;18.80;98.20;;;;;;5000559;28;20524;-81
2023/06/28 05:34:25;;;;;;;1.47;0.90;;;18.80;98.20;;;;;;4970962;28;20465;-82
2023/06/28 05:36:53;;;;;;;1.50;1.00;;;18.80;98.20;;;;;;4998023;28;20507;-82
2023/06/28 05:42:01;;;;;;;1.43;0.90;;;18.90;98.20;;;;;;4982691;28;20524;-87
2023/06/28 05:44:40;;;;;;;1.40;0.90;;;18.90;98.20;;;;;;4976070;28;20462;-88
2023/06/28 05:47:12;;;;;;;1.43;0.90;;;18.90;98.20;;;;;;4978092;28;20490;-89
2023/06/28 05:49:42;;;;;;;1.40;0.90;;;18.90;98.20;;;;;;4974242;28;20493;-87
2023/06/28 05:52:26;;;;;;;1.50;0.90;;;18.90;98.20;;;;;;4970912;28;20462;-88
2023/06/28 05:55:08;;;;;;;1.47;0.90;;;18.90;98.20;;;;;;4975893;28;20470;-88
2023/06/28 05:57:35;;;;;;;1.47;0.90;;;18.80;98.20;;;;;;4977406;28;20538;-88
2023/06/28 06:00:02;;;;;;;1.50;0.90;;;18.80;98.20;;;;;;4976509;28;20549;-87
2023/06/28 06:02:42;;;;;;;1.50;1.00;;;18.80;98.20;;;;;;4974376;28;20459;-86
2023/06/28 06:05:15;;;;;;;1.40;0.90;;;18.80;98.20;;;;;;4975180;28;20462;-88
2023/06/28 06:07:42;;;;;;;1.50;0.90;;;18.80;98.20;;;;;;4969620;28;20485;-88
2023/06/28 06:10:19;;;;;;;1.47;0.90;;;18.80;98.20;;;;;;4971215;28;20453;-88
2023/06/28 06:12:47;;;;;;;1.47;0.97;;;18.80;98.20;;;;;;4972425;28;20573;-85
2023/06/28 06:15:16;;;;;;;1.43;0.90;;;18.80;98.20;;;;;;4970571;28;20501;-88
2023/06/28 06:17:43;;;;;;;1.50;1.00;;;18.80;98.20;;;;;;4973224;28;20514;-88
2023/06/28 06:20:15;;;;;;;1.43;0.90;;;18.80;98.20;;;;;;4980269;28;20741;-88
2023/06/28 06:22:47;;;;;;;1.40;0.90;;;18.90;98.20;;;;;;4975619;28;20458;-84
2023/06/28 06:25:14;;;;;;;1.50;1.10;;;18.90;98.20;;;;;;4972892;28;20471;-88
2023/06/28 06:27:41;;;;;;;1.47;0.90;;;18.90;98.20;;;;;;4978917;28;20482;-88
2023/06/28 06:30:10;;;;;;;1.47;0.90;;;18.90;98.20;;;;;;4972366;28;20461;-89
2023/06/28 06:32:42;;;;;;;1.47;0.90;;;18.90;98.20;;;;;;4973215;28;21079;-92
2023/06/28 06:35:10;;;;;;;1.43;0.90;;;18.90;98.20;;;;;;4970041;28;20548;-86
2023/06/28 06:37:38;;;;;;;1.47;0.90;;;18.90;98.20;;;;;;4968865;28;20577;-85
2023/06/28 06:40:06;;;;;;;1.77;1.13;;;19.00;98.20;;;;;;4962984;28;20519;-85
2023/06/28 06:42:33;;;;;;;1.43;0.90;;;19.00;98.20;;;;;;4963676;28;20527;-86
2023/06/28 06:45:00;;;;;;;1.43;0.90;;;19.00;98.20;;;;;;4970780;28;20462;-86
2023/06/28 06:47:27;;;;;;;1.43;0.90;;;19.00;98.20;;;;;;4971992;28;20490;-88
2023/06/28 06:49:54;;;;;;;1.43;0.90;;;19.00;98.20;;;;;;4974414;28;20557;-86
2023/06/28 06:52:21;;;;;;;1.47;0.90;;;19.10;98.20;;;;;;4972422;28;20459;-87
2023/06/28 06:54:55;;;;;;;1.43;0.90;;;19.10;98.20;;;;;;4974893;28;20470;-88
2023/06/28 06:57:27;;;;;;;1.43;0.90;;;19.10;98.20;;;;;;4984386;28;20488;-86
2023/06/28 06:59:54;;;;;;;1.47;0.90;;;19.10;98.20;;;;;;4978617;28;20582;-88
2023/06/28 07:02:21;;;;;;;1.43;0.90;;;19.20;98.20;;;;;;4975497;28;20473;-86
2023/06/28 07:05:00;;;;;;;1.47;0.90;;;19.20;98.20;;;;;;4977078;28;20469;-87
2023/06/28 07:07:30;;;;;;;1.47;0.90;;;19.20;98.20;;;;;;4974201;28;20501;-84
2023/06/28 07:10:02;;;;;;;1.50;0.90;;;19.30;98.20;;;;;;4968531;28;20470;-85
2023/06/28 07:12:28;;;;;;;1.50;0.90;;;19.30;98.20;;;;;;4969776;28;20474;-85
2023/06/28 07:14:55;;;;;;;1.43;0.90;;;19.30;98.20;;;;;;4975156;28;20466;-84
2023/06/28 07:17:24;;;;;;;1.43;0.90;;;19.40;98.20;;;;;;4980000;28;20507;-86
2023/06/28 07:19:51;;;;;;;1.50;0.90;;;19.50;98.20;;;;;;4980575;28;20545;-87
2023/06/28 07:22:18;;;;;;;1.43;0.90;;;19.50;97.80;;;;;;4970366;28;20462;-84
2023/06/28 07:24:45;;;;;;;1.50;1.00;;;19.60;97.50;;;;;;4968285;28;20597;-85
2023/06/28 07:27:13;;;;;;;1.47;0.90;;;19.60;97.40;;;;;;4972577;28;20554;-87
2023/06/28 07:29:40;;;;;;;1.47;0.90;;;19.60;96.90;;;;;;4974508;28;20466;-89
2023/06/28 07:32:07;;;;;;;1.43;0.90;;;19.70;96.70;;;;;;4972845;28;20488;-85
2023/06/28 07:34:34;;;;;;;1.50;0.90;;;19.70;97.40;;;;;;4975759;28;20881;-87
2023/06/28 07:37:06;;;;;;;1.47;0.90;;;19.80;97.20;;;;;;4975271;28;21027;-83
2023/06/28 07:39:33;;;;;;;1.50;0.90;;;19.90;95.40;;;;;;4979432;28;20676;-86
2023/06/28 07:42:00;;;;;;;1.47;0.93;;;20.00;95.30;;;;;;4977848;28;20565;-85
2023/06/28 07:44:28;;;;;;;1.47;0.90;;;20.00;94.70;;;;;;4978062;28;20457;-88
2023/06/28 07:46:55;;;;;;;1.50;0.90;;;20.00;94.30;;;;;;4972861;28;20706;-86
2023/06/28 07:49:22;;;;;;;1.43;0.90;;;20.10;93.50;;;;;;4978086;28;20555;-84
2023/06/28 07:51:48;;;;;;;1.47;0.90;;;20.10;93.50;;;;;;4975682;28;20515;-86
2023/06/28 07:54:16;;;;;;;1.50;0.90;;;20.10;95.80;;;;;;4973505;28;20584;-87
2023/06/28 07:56:42;;;;;;;1.50;0.90;;;20.20;96.40;;;;;;4974154;28;20493;-86
2023/06/28 07:59:10;;;;;;;1.40;0.90;;;20.20;96.60;;;;;;4975460;28;20470;-89
2023/06/28 08:01:38;;;;;;;1.47;0.90;;;20.20;97.30;;;;;;4967681;28;20459;-88
2023/06/28 08:04:05;;;;;;;1.50;0.90;;;20.30;98.20;;;;;;4969710;28;20501;-85
2023/06/28 08:06:32;;;;;;;1.50;0.90;;;20.40;98.20;;;;;;4969599;28;20466;-85
2023/06/28 08:09:05;;;;;;;1.47;0.90;;;20.60;97.60;;;;;;4971544;28;20497;-88
2023/06/28 08:11:32;;;;;;;1.43;0.90;;;20.70;97.40;;;;;;4978091;28;20484;-86
2023/06/28 08:13:58;;;;;;;1.50;0.90;;;20.70;97.50;;;;;;4972318;28;21754;-87
2023/06/28 08:16:25;;;;;;;1.50;0.90;;;20.80;98.20;;;;;;4968324;28;20545;-85
2023/06/28 08:18:55;;;;;;;1.43;0.90;;;20.90;97.00;;;;;;4973348;28;20574;-88
2023/06/28 08:21:22;;;;;;;1.43;0.90;;;21.00;95.10;;;;;;4966606;28;20451;-89
2023/06/28 08:23:51;;;;;;;1.47;0.90;;;21.00;94.80;;;;;;4959363;28;20459;-87
2023/06/28 08:26:19;;;;;;;1.50;0.90;;;20.90;91.10;;;;;;4969464;28;20477;-88
2023/06/28 08:28:46;;;;;;;1.47;0.90;;;20.80;94.90;;;;;;4969197;28;20942;-87
2023/06/28 08:31:14;;;;;;;1.50;0.90;;;20.80;94.10;;;;;;4970261;28;20470;-88
2023/06/28 08:33:41;;;;;;;1.43;0.90;;;20.80;94.40;;;;;;4975782;28;20485;-87
2023/06/28 08:36:09;;;;;;;1.47;0.90;;;20.80;95.00;;;;;;4981264;28;20466;-85
2023/06/28 08:38:38;;;;;;;1.50;0.90;;;20.90;96.70;;;;;;4978594;28;20491;-87
2023/06/28 08:41:11;;;;;;;1.50;0.90;;;20.90;94.40;;;;;;4969853;28;20462;-87
2023/06/28 08:43:40;;;;;;;1.47;0.90;;;20.90;92.80;;;;;;4970432;28;20473;-86
2023/06/28 08:46:07;;;;;;;1.50;0.90;;;20.80;94.20;;;;;;4975760;28;20541;-88
2023/06/28 08:48:48;;;;;;;1.50;0.90;;;20.80;94.10;;;;;;4969240;28;20489;-85
2023/06/28 08:51:17;;;;;;;1.43;0.90;;;20.90;94.10;;;;;;4969170;28;20492;-85
2023/06/28 08:53:45;;;;;;;1.47;0.90;;;20.90;93.70;;;;;;4967085;28;21094;-88
2023/06/28 08:56:12;;;;;;;1.43;0.90;;;20.90;93.80;;;;;;4974705;28;20953;-87
2023/06/28 08:58:41;;;;;;;1.50;0.90;;;20.80;91.70;;;;;;4971834;28;20510;-86
2023/06/28 09:01:09;;;;;;;1.43;0.90;;;20.90;92.90;;;;;;4975896;28;20470;-87
2023/06/28 09:03:41;;;;;;;1.50;0.90;;;20.90;92.80;;;;;;4973885;28;20451;-86
2023/06/28 09:06:09;;;;;;;1.47;0.90;;;20.90;91.20;;;;;;4981182;28;20489;-85
2023/06/28 09:08:42;;;;;;;1.50;0.90;;;21.00;92.80;;;;;;4973573;28;20486;-86
2023/06/28 09:11:09;;;;;;;1.50;0.90;;;21.00;92.30;;;;;;4974823;28;20466;-85
2023/06/28 09:13:36;;;;;;;1.50;0.90;;;21.10;90.30;;;;;;4974999;28;20509;-83
2023/06/28 09:16:10;;;;;;;1.43;0.90;;;21.10;91.30;;;;;;4970681;28;20458;-86
2023/06/28 09:18:37;;;;;;;1.50;0.90;;;21.10;90.60;;;;;;4972574;28;20490;-86
2023/06/28 09:21:09;;;;;;;1.47;0.87;;;21.20;90.90;;;;;;4970722;28;20497;-85
2023/06/28 09:23:38;;;;;;;1.50;0.90;;;21.30;89.80;;;;;;4969144;28;20459;-86
2023/06/28 09:26:10;;;;;;;1.47;0.90;;;21.30;90.50;;;;;;4973281;28;20490;-85
2023/06/28 09:28:37;;;;;;;1.50;0.90;;;21.40;90.00;;;;;;4969069;28;20494;-85
2023/06/28 09:31:05;;;;;;;1.47;0.90;;;21.40;89.70;;;;;;4965692;28;20463;-85
2023/06/28 09:33:32;;;;;;;1.50;0.90;;;21.50;88.60;;;;;;4962634;28;20526;-86
2023/06/28 09:36:03;;;;;;;1.50;0.90;;;21.50;90.10;;;;;;4965886;28;20466;-85
2023/06/28 09:38:30;;;;;;;1.47;0.90;;;21.60;89.50;;;;;;4966208;28;20479;-82
2023/06/28 09:41:00;;;;;;;1.43;0.83;;;21.60;88.90;;;;;;4972510;28;20722;-86
2023/06/28 09:43:32;;;;;;;1.50;0.90;;;21.70;88.90;;;;;;4969952;28;20526;-86
2023/06/28 09:46:12;;;;;;;1.47;0.90;;;21.70;88.30;;;;;;4971195;28;20469;-83
2023/06/28 09:48:43;;;;;;;1.47;0.90;;;21.80;88.90;;;;;;4971543;28;20485;-87
2023/06/28 09:51:11;;;;;;;1.50;0.90;;;21.80;88.50;;;;;;4971525;28;20459;-83
2023/06/28 09:53:49;;;;;;;1.43;0.90;;;21.70;88.00;;;;;;4976775;28;20478;-86
2023/06/28 09:56:17;;;;;;;1.47;0.90;;;21.70;89.20;;;;;;4975997;28;20489;-85
2023/06/28 09:58:46;;;;;;;1.47;0.90;;;21.80;88.30;;;;;;4975147;28;20489;-83
2023/06/28 10:01:18;;;;;;;1.43;0.80;;;21.80;88.20;;;;;;4975239;28;20466;-85
2023/06/28 10:03:46;;;;;;;1.47;0.90;;;21.90;88.20;;;;;;4978001;28;20462;-86
2023/06/28 10:06:14;;;;;;;1.47;0.90;;;21.90;88.10;;;;;;4975280;28;20892;-84
2023/06/28 10:08:42;;;;;;;1.47;0.90;;;22.10;87.90;;;;;;4973471;28;20544;-86
2023/06/28 10:11:13;;;;;;;1.43;0.80;;;22.20;87.00;;;;;;4975279;28;20549;-85
2023/06/28 10:13:43;;;;;;;1.50;0.90;;;22.30;87.50;;;;;;4969988;28;20482;-85
2023/06/28 10:16:14;;;;;;;1.40;0.80;;;22.40;85.90;;;;;;4973088;28;20872;-86
2023/06/28 10:18:42;;;;;;;1.47;0.83;;;22.40;84.70;;;;;;4971832;28;20770;-85
2023/06/28 10:21:10;;;;;;;1.47;0.90;;;22.50;84.30;;;;;;4978474;28;20472;-85
2023/06/28 10:23:39;;;;;;;1.50;0.90;;;22.60;85.00;;;;;;4978259;28;20469;-85
2023/06/28 10:26:06;;;;;;;1.60;1.33;;;22.70;83.80;;;;;;4974100;28;20458;-85
2023/06/28 10:28:34;;;;;;;1.50;0.87;;;22.70;83.20;;;;;;4978675;28;20581;-85
2023/06/28 10:31:03;;;;;;;1.43;0.90;;;22.80;84.30;;;;;;4977830;28;20462;-88
2023/06/28 10:33:32;;;;;;;1.47;0.80;;;22.90;84.00;;;;;;4972411;28;21024;-86
2023/06/28 10:36:04;;;;;;;1.50;0.87;;;23.10;83.50;;;;;;4979157;28;21058;-86
2023/06/28 10:38:33;;;;;;;1.43;0.90;;;23.10;83.60;;;;;;4980313;28;20510;-88
2023/06/28 10:41:05;;;;;;;1.47;0.80;;;23.10;83.90;;;;;;4979690;28;20554;-86
2023/06/28 10:43:36;;;;;;;1.50;0.90;;;23.20;84.10;;;;;;4974254;28;20533;-86
2023/06/28 10:46:22;;;;;;;1.50;0.80;;;23.20;84.30;;;;;;4972090;28;20455;-85
2023/06/28 10:48:59;;;;;;;1.50;0.80;;;23.20;83.30;;;;;;4961619;28;20469;-86
2023/06/28 10:51:28;;;;;;;1.47;0.90;;;23.20;83.20;;;;;;4966361;28;20502;-87
2023/06/28 10:54:07;;;;;;;1.47;0.80;;;23.10;83.70;;;;;;4964093;28;20525;-85
2023/06/28 10:56:39;;;;;;;1.40;0.90;;;23.00;83.40;;;;;;4972600;28;20494;-89
2023/06/28 10:59:11;;;;;;;1.43;0.90;;;23.10;84.40;;;;;;4974018;28;20493;-87
2023/06/28 11:01:55;;;;;;;1.43;0.80;;;23.10;83.40;;;;;;4970005;28;20474;-86
2023/06/28 11:04:23;;;;;;;1.47;0.90;;;23.00;83.90;;;;;;4977613;28;20468;-88
2023/06/28 11:07:10;;;;;;;1.47;0.90;;;23.10;83.60;;;;;;4977504;28;20934;-86
2023/06/28 11:09:37;;;;;;;1.47;0.90;;;23.10;84.30;;;;;;4982144;28;20532;-85
2023/06/28 11:12:07;;;;;;;1.50;0.80;;;23.10;84.60;;;;;;4972479;28;20462;-88
2023/06/28 11:14:34;;;;;;;1.47;0.90;;;23.10;83.90;;;;;;4964793;28;21013;-85
2023/06/28 11:17:06;;;;;;;1.47;0.90;;;23.10;85.20;;;;;;4968448;28;20481;-85
2023/06/28 11:19:34;;;;;;;1.43;0.90;;;23.20;84.10;;;;;;4970283;28;20469;-87
2023/06/28 11:22:07;;;;;;;1.43;0.80;;;23.20;84.40;;;;;;4973212;28;20450;-86
2023/06/28 11:24:44;;;;;;;1.47;0.90;;;23.30;83.90;;;;;;4970221;28;20467;-88
2023/06/28 11:27:13;;;;;;;1.47;0.90;;;23.40;84.70;;;;;;4970381;28;20496;-86
2023/06/28 11:29:56;;;;;;;1.47;0.90;;;23.50;83.90;;;;;;4975060;28;20485;-85
2023/06/28 11:32:26;;;;;;;1.47;0.80;;;23.60;83.40;;;;;;4978530;28;20526;-89
2023/06/28 11:35:00;;;;;;;1.50;0.90;;;23.70;83.20;;;;;;4987274;28;20485;-90
2023/06/28 11:37:30;;;;;;;1.43;0.80;;;23.70;83.30;;;;;;4979966;28;20491;-89
2023/06/28 11:40:14;;;;;;;1.50;1.00;;;23.80;82.40;;;;;;4981300;28;20473;-85
2023/06/28 11:42:58;;;;;;;1.50;0.87;;;23.80;83.00;;;;;;4980686;28;20516;-88
2023/06/28 11:45:28;;;;;;;1.50;0.90;;;23.80;83.30;;;;;;4968696;28;20470;-89
2023/06/28 11:48:32;;;;;;;1.47;0.87;;;23.90;83.90;;;;;;4960853;28;21076;-91
2023/06/28 11:51:05;;;;;;;1.50;0.87;;;24.00;83.40;;;;;;4947517;28;20914;-88
2023/06/28 11:53:55;;;;;;;1.47;0.83;;;24.10;83.00;;;;;;4968472;28;20465;-88
2023/06/28 11:57:16;;;;;;;1.50;0.90;;;24.20;81.60;;;;;;4962302;28;20537;-91
2023/06/28 11:59:59;;;;;;;1.47;0.80;;;24.10;82.50;;;;;;4890994;29;20538;-88
2023/06/28 12:02:31;;;;;;;1.40;0.80;;;24.30;82.80;;;;;;4900270;29;20556;-89
2023/06/28 12:08:52;;;;;;;1.47;0.90;;;24.60;81.80;;;;;;4843040;29;20480;-90
2023/06/28 12:11:27;;;;;;;1.47;0.80;;;24.80;81.50;;;;;;4962214;28;20478;-91
2023/06/28 12:14:05;;;;;;;1.50;0.90;;;24.90;81.30;;;;;;4965432;28;20558;-90
2023/06/28 12:16:34;;;;;;;1.47;0.80;;;25.00;81.10;;;;;;4968411;28;20476;-90
2023/06/28 12:19:14;;;;;;;1.47;0.90;;;25.00;81.60;;;;;;4967612;28;20533;-89
2023/06/28 12:22:00;;;;;;;1.43;0.80;;;25.10;80.80;;;;;;4964837;28;20538;-88
2023/06/28 12:31:46;;;;;;;1.50;0.90;;;25.20;79.70;;;;;;5015134;23;20694;-90
2023/06/28 12:34:34;;;;;;;1.47;0.87;;;25.20;80.30;;;;;;4978925;28;20472;-90
2023/06/28 12:38:02;;;;;;;1.50;0.80;;;24.80;79.80;;;;;;4983635;28;21060;-87
2023/06/28 12:40:31;;;;;;;1.40;0.80;;;24.70;80.20;;;;;;4903882;29;20512;-91
2023/06/28 12:43:35;;;;;;;1.50;0.90;;;24.50;80.90;;;;;;4981655;28;20884;-91
2023/06/28 12:46:05;;;;;;;1.47;0.80;;;24.60;81.80;;;;;;4987133;28;20569;-88
2023/06/28 12:49:03;;;;;;;1.47;0.87;;;24.80;82.00;;;;;;4985098;28;20856;-89
2023/06/28 12:51:31;;;;;;;1.47;0.80;;;24.90;81.20;;;;;;4984371;28;20506;-88
2023/06/28 12:54:08;;;;;;;1.50;0.83;;;25.10;80.80;;;;;;4975374;28;20787;-88
2023/06/28 12:56:37;;;;;;;1.50;0.80;;;25.20;80.20;;;;;;4989467;28;20536;-90
2023/06/28 12:59:07;;;;;;;1.43;0.80;;;25.40;80.60;;;;;;4981832;28;20461;-88
2023/06/28 13:01:34;;;;;;;1.47;0.80;;;25.60;80.10;;;;;;4972505;28;20483;-88
2023/06/28 13:04:01;;;;;;;1.50;0.80;;;25.80;79.60;;;;;;4980389;28;20461;-90
2023/06/28 13:06:58;;;;;;;;;;;;;;;;;;;;;
2023/06/28 13:09:25;;;;;;;1.47;0.80;;;26.10;77.80;;;;;;4975665;28;20547;-88
2023/06/28 13:11:52;;;;;;;1.47;0.90;;;26.20;78.00;;;;;;4975270;28;20470;-86
2023/06/28 13:14:30;;;;;;;1.47;0.87;;;26.30;77.80;;;;;;4974803;28;20490;-86
2023/06/28 13:16:57;;;;;;;1.50;0.80;;;26.40;77.40;;;;;;4972146;28;20480;-86
2023/06/28 13:25:58;;;;;;;1.50;0.80;;;26.40;77.50;;;;;;4926068;29;21402;-90
2023/06/28 13:28:45;;;;;;;1.40;0.80;;;26.40;78.60;;;;;;4926402;28;20921;-88